KSHN/SHN METAR and TAF weather

Enter ICAO airport designator
Station Type Date Time Source
KSHN METAR 2020/02/19 10:53 UTC NOAA

KSHN 191053Z AUTO 00000KT 10SM CLR M04/M05 A3031 RMK AO2 SLP270 I1001 T10391050


Station Type Date Time Source
KSHN Decoded METAR 2020/02/19 10:53 UTC NOAA

SHELTON SANDERSON FIELD, WA, United States (KSHN) 47-14N 123-08W 82M
Feb 19, 2020 - 05:53 AM EST / 2020.02.19 1053 UTC
Wind: Calm:0
Visibility: 10 mile(s):0
Sky conditions: clear
Temperature: 25.0 F (-3.9 C)
Dew Point: 23.0 F (-5.0 C)
Relative Humidity: 92%
Pressure (altimeter): 30.31 in. Hg (1026 hPa)
ob: KSHN 191053Z AUTO 00000KT 10SM CLR M04/M05 A3031 RMK AO2 SLP270 I1001 T10391050
cycle: 11

Station Type Date Time Source
KSHN TAF UTC NOAA

Error!

Example: see airport list